createdAt,value
2023-02-06T00:01:35.338Z,102824.38
2023-02-06T00:04:02.205Z,102824.38
2023-02-06T00:06:28.870Z,102832.41
2023-02-06T00:08:55.797Z,102829.75
2023-02-06T00:11:23.013Z,102828.03
2023-02-06T00:13:49.820Z,102821.91
2023-02-06T00:16:26.978Z,102826.25
2023-02-06T00:18:55.616Z,102826.97
2023-02-06T00:21:25.939Z,102834.03
2023-02-06T00:23:55.268Z,102834.09
2023-02-06T00:26:22.697Z,102829.66
2023-02-06T00:28:49.298Z,102836.78
2023-02-06T00:31:16.163Z,102834.16
2023-02-06T00:33:43.219Z,102842.97
2023-02-06T00:36:10.526Z,102842.97
2023-02-06T00:38:38.120Z,102842.97
2023-02-06T00:41:05.544Z,102842.97
2023-02-06T00:43:32.326Z,102844.94
2023-02-06T00:45:59.095Z,102841.47
2023-02-06T00:48:25.964Z,102850.34
2023-02-06T00:50:53.991Z,102836.53
2023-02-06T00:53:21.460Z,102847.00
2023-02-06T00:55:48.020Z,102832.09
2023-02-06T00:58:14.610Z,102839.03
2023-02-06T01:00:41.130Z,102834.41
2023-02-06T01:03:07.748Z,102844.94
2023-02-06T01:05:34.611Z,102847.63
2023-02-06T01:08:04.033Z,102846.63
2023-02-06T01:10:30.983Z,102850.09
2023-02-06T01:12:57.592Z,102848.25
2023-02-06T01:15:24.146Z,102850.03
2023-02-06T01:17:50.747Z,102854.69
2023-02-06T01:20:17.423Z,102851.06
2023-02-06T01:22:44.074Z,102849.22
2023-02-06T01:25:10.599Z,102849.19
2023-02-06T01:27:38.110Z,102842.97
2023-02-06T01:30:07.262Z,102842.91
2023-02-06T01:32:37.754Z,102844.69
2023-02-06T01:35:06.799Z,102830.53
2023-02-06T01:37:33.417Z,102833.13
2023-02-06T01:39:59.930Z,102829.72
2023-02-06T01:42:26.452Z,102828.09
2023-02-06T01:45:23.576Z,102831.75
2023-02-06T01:47:55.448Z,102826.50
2023-02-06T01:50:22.686Z,102828.22
2023-02-06T01:52:50.062Z,102838.00
2023-02-06T01:55:17.345Z,102841.84
2023-02-06T01:57:44.500Z,102845.56
2023-02-06T02:00:11.699Z,102839.44
2023-02-06T02:02:42.967Z,102829.91
2023-02-06T02:05:11.426Z,102838.63
2023-02-06T02:08:01.391Z,102846.56
2023-02-06T02:10:29.896Z,102840.41
2023-02-06T02:12:56.864Z,102845.06
2023-02-06T02:15:35.630Z,102842.44
2023-02-06T02:18:29.439Z,102842.44
2023-02-06T02:21:37.605Z,102843.38
2023-02-06T02:24:33.037Z,102843.50
2023-02-06T02:27:21.071Z,102839.28
2023-02-06T02:29:56.330Z,102840.25
2023-02-06T02:32:45.244Z,102839.44
2023-02-06T02:35:29.121Z,102836.09
2023-02-06T02:38:20.374Z,102840.63
2023-02-06T02:40:49.593Z,102845.19
2023-02-06T02:43:49.816Z,102851.56
2023-02-06T02:46:44.475Z,102852.44
2023-02-06T02:49:18.074Z,102855.91
2023-02-06T02:51:45.786Z,102860.25
2023-02-06T02:54:12.403Z,102859.38
2023-02-06T02:56:39.060Z,102868.25
2023-02-06T02:59:23.609Z,102863.03
2023-02-06T03:01:58.854Z,102864.28
2023-02-06T03:04:32.364Z,102877.81
2023-02-06T03:07:20.573Z,102877.09
2023-02-06T03:09:56.218Z,102871.94
2023-02-06T03:13:03.961Z,102870.59
2023-02-06T03:15:45.590Z,102863.97
2023-02-06T03:18:18.698Z,102854.56
2023-02-06T03:20:47.805Z,102853.91
2023-02-06T03:23:20.330Z,102861.13
2023-02-06T03:25:51.019Z,102849.78
2023-02-06T03:28:25.608Z,102855.19
2023-02-06T03:30:56.425Z,102850.09
2023-02-06T03:33:28.977Z,102857.16
2023-02-06T03:35:57.864Z,102860.72
2023-02-06T03:38:25.954Z,102852.06
2023-02-06T03:40:56.469Z,102863.44
2023-02-06T03:43:27.288Z,102870.47
2023-02-06T03:46:00.443Z,102873.88
2023-02-06T03:48:41.755Z,102878.19
2023-02-06T03:51:22.526Z,102885.19
2023-02-06T03:53:52.146Z,102876.25
2023-02-06T03:56:56.331Z,102877.00
2023-02-06T03:59:23.317Z,102877.81
2023-02-06T04:01:53.629Z,102880.41
2023-02-06T04:04:24.964Z,102882.13
2023-02-06T04:06:51.558Z,102879.38
2023-02-06T04:09:18.156Z,102882.84
2023-02-06T04:11:44.686Z,102882.84
2023-02-06T04:14:11.263Z,102899.66
2023-02-06T04:16:37.908Z,102911.91
2023-02-06T04:19:04.509Z,102913.63
2023-02-06T04:21:31.182Z,102910.97
2023-02-06T04:23:57.709Z,102908.25
2023-02-06T04:26:24.409Z,102910.00
2023-02-06T04:28:51.030Z,102915.25
2023-02-06T04:31:17.720Z,102907.22
2023-02-06T04:33:44.355Z,102908.09
2023-02-06T04:36:10.936Z,102905.34
2023-02-06T04:38:37.479Z,102899.00
2023-02-06T04:41:05.278Z,102905.34
2023-02-06T04:43:32.651Z,102893.06
2023-02-06T04:45:59.917Z,102891.31
2023-02-06T04:48:26.677Z,102892.28
2023-02-06T04:50:53.216Z,102892.25
2023-02-06T04:53:20.977Z,102890.47
2023-02-06T04:55:47.762Z,102894.03
2023-02-06T04:58:14.454Z,102896.75
2023-02-06T05:00:41.142Z,102881.75
2023-02-06T05:03:07.735Z,102888.69
2023-02-06T05:05:34.656Z,102891.31
2023-02-06T05:08:01.575Z,102904.69
2023-02-06T05:10:28.129Z,102899.34
2023-02-06T05:12:56.094Z,102900.31
2023-02-06T05:15:22.747Z,102898.59
2023-02-06T05:17:49.410Z,102907.50
2023-02-06T05:20:16.177Z,102903.03
2023-02-06T05:22:42.729Z,102896.84
2023-02-06T05:25:09.374Z,102890.63
2023-02-06T05:27:36.185Z,102904.88
2023-02-06T05:30:02.846Z,102907.72
2023-02-06T05:32:29.506Z,102909.47
2023-02-06T05:34:56.293Z,102900.44
2023-02-06T05:37:23.103Z,102903.09
2023-02-06T05:39:49.729Z,102899.63
2023-02-06T05:42:16.317Z,102908.38
2023-02-06T05:44:43.021Z,102914.50
2023-02-06T05:47:09.596Z,102915.38
2023-02-06T05:49:36.183Z,102915.41
2023-02-06T05:52:02.918Z,102927.69
2023-02-06T05:54:29.510Z,102924.88
2023-02-06T05:56:57.967Z,102920.44
2023-02-06T05:59:24.541Z,102927.34
2023-02-06T06:01:51.217Z,102916.09
2023-02-06T06:04:17.912Z,102930.00
2023-02-06T06:06:44.661Z,102935.91
2023-02-06T06:09:11.489Z,102936.97
2023-02-06T06:11:38.542Z,102940.44
2023-02-06T06:14:05.778Z,102949.19
2023-02-06T06:16:32.823Z,102932.56
2023-02-06T06:18:59.481Z,102947.31
2023-02-06T06:21:25.989Z,102937.56
2023-02-06T06:23:52.578Z,102944.66
2023-02-06T06:26:19.272Z,102951.00
2023-02-06T06:28:45.828Z,102947.41
2023-02-06T06:31:12.767Z,102949.47
2023-02-06T06:33:40.246Z,102962.63
2023-02-06T06:36:08.746Z,102954.63
2023-02-06T06:38:35.937Z,102968.91
2023-02-06T06:41:03.383Z,102965.34
2023-02-06T06:43:30.455Z,102959.91
2023-02-06T06:45:57.159Z,102957.22
2023-02-06T06:48:23.805Z,102971.38
2023-02-06T06:50:50.442Z,102965.00
2023-02-06T06:53:17.097Z,102965.00
2023-02-06T06:55:43.656Z,102961.44
2023-02-06T06:58:10.783Z,102973.81
2023-02-06T07:00:38.723Z,102970.25
2023-02-06T07:03:06.041Z,102971.88
2023-02-06T07:05:32.782Z,102966.44
2023-02-06T07:07:59.476Z,102973.50
2023-02-06T07:10:26.735Z,102973.44
2023-02-06T07:12:56.859Z,102977.97
2023-02-06T07:15:23.624Z,102984.03
2023-02-06T07:17:50.224Z,102955.97
2023-02-06T07:20:16.969Z,102976.88
2023-02-06T07:22:43.620Z,102974.91
2023-02-06T07:25:10.661Z,102975.75
2023-02-06T07:27:37.322Z,102980.25
2023-02-06T07:30:06.454Z,102980.13
2023-02-06T07:32:35.768Z,102976.72
2023-02-06T07:35:02.349Z,102988.28
2023-02-06T07:37:28.929Z,102975.94
2023-02-06T07:39:55.472Z,102983.81
2023-02-06T07:42:22.044Z,102983.16
2023-02-06T07:44:48.765Z,102982.19
2023-02-06T07:47:15.344Z,102986.56
2023-02-06T07:49:41.944Z,102969.16
2023-02-06T07:52:08.962Z,102971.44
2023-02-06T07:54:35.584Z,102964.19
2023-02-06T07:57:02.209Z,102970.19
2023-02-06T07:59:28.893Z,102978.06
2023-02-06T08:01:55.478Z,102953.59
2023-02-06T08:04:22.283Z,102967.16
2023-02-06T08:06:48.938Z,102925.19
2023-02-06T08:09:19.196Z,102972.84
2023-02-06T08:11:45.767Z,102963.72
2023-02-06T08:14:12.492Z,102970.78
2023-02-06T08:16:39.543Z,102970.53
2023-02-06T08:19:06.960Z,102962.50
2023-02-06T08:21:33.521Z,102969.50
2023-02-06T08:24:00.907Z,102975.63
2023-02-06T08:26:29.738Z,102977.69
2023-02-06T08:28:57.547Z,102979.59
2023-02-06T08:31:28.562Z,102981.28
2023-02-06T08:33:56.004Z,102979.34
2023-02-06T08:36:24.219Z,102972.41
2023-02-06T08:38:52.459Z,102979.25
2023-02-06T08:41:34.596Z,102970.28
2023-02-06T08:44:02.824Z,102974.50
2023-02-06T08:46:32.159Z,102968.78
2023-02-06T08:49:04.841Z,102968.19
2023-02-06T08:51:32.422Z,102972.25
2023-02-06T08:54:07.039Z,102967.63
2023-02-06T08:56:35.513Z,102960.13
2023-02-06T08:59:03.010Z,102952.00
2023-02-06T09:01:31.746Z,102962.69
2023-02-06T09:04:00.931Z,102964.47
2023-02-06T09:06:27.823Z,102958.91
2023-02-06T09:08:55.587Z,102958.78
2023-02-06T09:11:23.668Z,102964.63
2023-02-06T09:13:50.780Z,102971.25
2023-02-06T09:16:19.658Z,102958.53
2023-02-06T09:18:46.890Z,102947.06
2023-02-06T09:21:19.875Z,102952.72
2023-02-06T09:23:49.629Z,102953.81
2023-02-06T09:26:19.912Z,102945.44
2023-02-06T09:28:46.800Z,102943.44
2023-02-06T09:31:13.561Z,102957.22
2023-02-06T09:33:40.461Z,102946.69
2023-02-06T09:36:13.528Z,102960.09
2023-02-06T09:38:45.575Z,102958.78
2023-02-06T09:41:27.264Z,102949.84
2023-02-06T09:44:04.258Z,102944.94
2023-02-06T09:46:33.971Z,102934.63
2023-02-06T09:49:09.173Z,102952.84
2023-02-06T09:51:41.424Z,102942.97
2023-02-06T09:54:08.006Z,102933.94
2023-02-06T09:57:10.043Z,102928.34
2023-02-06T09:59:43.280Z,102919.47
2023-02-06T10:02:22.522Z,102928.59
2023-02-06T10:05:00.221Z,102925.25
2023-02-06T10:07:44.671Z,102929.56
2023-02-06T10:10:20.525Z,102939.91
2023-02-06T10:13:05.086Z,102931.97
2023-02-06T10:15:42.690Z,102933.81
2023-02-06T10:18:19.210Z,102908.94
2023-02-06T10:20:55.281Z,102935.91
2023-02-06T10:23:33.117Z,102924.47
2023-02-06T10:26:17.142Z,102912.00
2023-02-06T10:28:47.323Z,102904.88
2023-02-06T10:31:22.389Z,102914.59
2023-02-06T10:33:57.944Z,102906.13
2023-02-06T10:36:44.665Z,102915.53
2023-02-06T10:39:54.773Z,102909.84
2023-02-06T10:42:39.779Z,102916.31
2023-02-06T10:45:34.662Z,102906.13
2023-02-06T10:48:13.777Z,102898.84
2023-02-06T10:50:55.043Z,102902.63
2023-02-06T10:53:28.811Z,102888.91
2023-02-06T10:56:03.116Z,102894.56
2023-02-06T10:58:46.057Z,102890.09
2023-02-06T11:01:25.659Z,102896.41
2023-02-06T11:03:59.953Z,102884.13
2023-02-06T11:06:28.933Z,102893.34
2023-02-06T11:08:56.092Z,102888.88
2023-02-06T11:11:31.721Z,102894.25
2023-02-06T11:14:07.746Z,102885.66
2023-02-06T11:16:37.533Z,102876.72
2023-02-06T11:19:38.570Z,102881.69
2023-02-06T11:22:05.790Z,102886.09
2023-02-06T11:24:32.444Z,102866.31
2023-02-06T11:27:01.991Z,102892.34
2023-02-06T11:29:37.133Z,102888.22
2023-02-06T11:32:06.710Z,102874.06
2023-02-06T11:34:54.503Z,102869.59
2023-02-06T11:37:37.962Z,102878.63
2023-02-06T11:40:19.799Z,102876.28
2023-02-06T11:43:18.207Z,102872.88
2023-02-06T11:45:47.550Z,102862.50
2023-02-06T11:48:38.373Z,102855.56
2023-02-06T11:51:06.608Z,102847.50
2023-02-06T11:53:34.056Z,102838.69
2023-02-06T11:56:17.147Z,102827.22
2023-02-06T11:58:45.157Z,102828.81
2023-02-06T12:01:21.973Z,102844.06
2023-02-06T12:03:55.253Z,102836.72
2023-02-06T12:06:35.861Z,102828.06
2023-02-06T12:09:09.824Z,102822.59
2023-02-06T12:11:55.188Z,102815.84
2023-02-06T12:14:30.835Z,102819.31
2023-02-06T12:17:00.425Z,102812.53
2023-02-06T12:19:31.829Z,102802.78
2023-02-06T12:22:04.771Z,102816.66
2023-02-06T12:24:45.304Z,102809.00
2023-02-06T12:27:17.350Z,102803.97
2023-02-06T12:29:59.380Z,102790.75
2023-02-06T12:32:34.614Z,102785.97
2023-02-06T12:35:14.472Z,102787.72
2023-02-06T12:37:49.758Z,102776.00
2023-02-06T12:40:32.622Z,102774.56
2023-02-06T12:43:12.210Z,102759.47
2023-02-06T12:45:54.214Z,102763.47
2023-02-06T12:48:38.863Z,102759.41
2023-02-06T12:51:13.261Z,102747.66
2023-02-06T12:53:51.087Z,102746.19
2023-02-06T12:56:41.371Z,102750.25
2023-02-06T12:59:10.908Z,102740.75
2023-02-06T13:01:40.467Z,102742.56
2023-02-06T13:04:32.571Z,102739.66
2023-02-06T13:07:05.253Z,102734.59
2023-02-06T13:09:40.412Z,102740.22
2023-02-06T13:12:14.297Z,102730.28
2023-02-06T13:14:56.671Z,102717.34
2023-02-06T13:17:45.099Z,102721.94
2023-02-06T13:20:14.365Z,102716.56
2023-02-06T13:22:45.684Z,102704.09
2023-02-06T13:25:30.660Z,102708.09
2023-02-06T13:28:01.317Z,102701.31
2023-02-06T13:30:30.827Z,102704.22
2023-02-06T13:33:14.712Z,102696.41
2023-02-06T13:36:00.818Z,102693.13
2023-02-06T13:38:34.923Z,102703.31
2023-02-06T13:41:29.163Z,102713.38
2023-02-06T13:43:55.754Z,102715.28
2023-02-06T13:46:32.927Z,102722.28
2023-02-06T13:49:18.073Z,102722.38
2023-02-06T13:52:02.857Z,102722.41
2023-02-06T13:55:02.381Z,102722.19
2023-02-06T13:58:10.095Z,102710.47
2023-02-06T14:00:41.270Z,102709.25
2023-02-06T14:03:46.747Z,102707.28
2023-02-06T14:06:38.181Z,102707.06
2023-02-06T14:09:54.625Z,102706.66
2023-02-06T14:12:33.993Z,102688.91
2023-02-06T14:15:16.009Z,102685.22
2023-02-06T14:17:57.595Z,102680.09
2023-02-06T14:20:48.817Z,102676.13
2023-02-06T14:23:40.187Z,102674.00
2023-02-06T14:26:21.907Z,102680.22
2023-02-06T14:29:13.923Z,102689.25
2023-02-06T14:32:28.584Z,102684.38
2023-02-06T14:35:01.202Z,102680.41
2023-02-06T14:37:58.819Z,102666.25
2023-02-06T14:40:29.590Z,102679.13
2023-02-06T14:43:04.834Z,102673.25
2023-02-06T14:45:41.605Z,102694.09
2023-02-06T14:48:31.697Z,102666.31
2023-02-06T14:50:58.640Z,102679.25
2023-02-06T14:53:30.764Z,102699.13
2023-02-06T14:56:14.712Z,102687.09
2023-02-06T14:58:46.087Z,102665.91
2023-02-06T15:01:20.550Z,102692.00
2023-02-06T15:03:48.969Z,102692.53
2023-02-06T15:06:38.469Z,102689.56
2023-02-06T15:09:06.508Z,102672.31
2023-02-06T15:11:33.622Z,102677.19
2023-02-06T15:14:06.478Z,102685.00
2023-02-06T15:16:46.691Z,102684.28
2023-02-06T15:19:21.568Z,102679.34
2023-02-06T15:21:49.818Z,102685.94
2023-02-06T15:24:29.526Z,102696.88
2023-02-06T15:26:58.888Z,102698.13
2023-02-06T15:29:26.962Z,102689.75
2023-02-06T15:31:57.991Z,102689.75
2023-02-06T15:34:26.164Z,102673.47
2023-02-06T15:36:53.246Z,102682.13
2023-02-06T15:39:20.256Z,102684.88
2023-02-06T15:41:50.539Z,102680.72
2023-02-06T15:44:25.695Z,102678.28
2023-02-06T15:46:53.130Z,102668.09
2023-02-06T15:49:43.250Z,102679.28
2023-02-06T15:52:30.799Z,102676.69
2023-02-06T15:54:58.815Z,102679.34
2023-02-06T15:57:34.007Z,102674.94
2023-02-06T16:00:01.426Z,102671.88
2023-02-06T16:02:36.790Z,102668.00
2023-02-06T16:05:05.143Z,102673.00
2023-02-06T16:07:35.897Z,102666.84
2023-02-06T16:10:08.361Z,102667.84
2023-02-06T16:12:37.239Z,102667.84
2023-02-06T16:15:30.122Z,102672.25
2023-02-06T16:18:00.061Z,102659.38
2023-02-06T16:20:37.226Z,102667.25
2023-02-06T16:23:22.081Z,102667.50
2023-02-06T16:26:19.038Z,102663.50
2023-02-06T16:28:51.684Z,102674.91
2023-02-06T16:31:18.563Z,102674.81
2023-02-06T16:33:47.929Z,102673.03
2023-02-06T16:36:17.329Z,102666.09
2023-02-06T16:38:48.432Z,102665.41
2023-02-06T16:41:37.505Z,102656.84
2023-02-06T16:44:10.094Z,102674.44
2023-02-06T16:46:36.890Z,102657.81
2023-02-06T16:49:10.381Z,102658.59
2023-02-06T16:51:40.464Z,102674.38
2023-02-06T16:54:09.455Z,102676.31
2023-02-06T16:56:39.528Z,102684.38
2023-02-06T16:59:06.261Z,102675.94
2023-02-06T17:01:33.005Z,102683.75
2023-02-06T17:03:59.744Z,102683.88
2023-02-06T17:06:29.625Z,102696.41
2023-02-06T17:08:59.058Z,102689.47
2023-02-06T17:11:25.636Z,102684.50
2023-02-06T17:13:52.333Z,102682.94
2023-02-06T17:16:22.427Z,102697.00
2023-02-06T17:18:49.809Z,102710.38
2023-02-06T17:21:18.614Z,102710.50
2023-02-06T17:23:45.801Z,102711.75
2023-02-06T17:26:13.993Z,102711.84
2023-02-06T17:28:41.032Z,102718.22
2023-02-06T17:31:08.300Z,102713.06
2023-02-06T17:33:35.604Z,102701.72
2023-02-06T17:36:05.763Z,102709.88
2023-02-06T17:38:34.090Z,102705.81
2023-02-06T17:41:00.671Z,102706.00
2023-02-06T17:43:29.657Z,102712.28
2023-02-06T17:45:56.305Z,102713.31
2023-02-06T17:48:22.985Z,102709.31
2023-02-06T17:50:52.385Z,102710.75
2023-02-06T17:53:19.130Z,102724.25
2023-02-06T17:55:46.028Z,102720.19
2023-02-06T17:58:12.669Z,102730.88
2023-02-06T18:00:39.529Z,102728.53
2023-02-06T18:03:06.401Z,102715.63
2023-02-06T18:05:33.427Z,102728.09
2023-02-06T18:08:00.112Z,102723.09
2023-02-06T18:10:26.727Z,102723.22
2023-02-06T18:12:53.299Z,102728.59
2023-02-06T18:15:20.286Z,102724.47
2023-02-06T18:17:46.993Z,102719.34
2023-02-06T18:20:15.694Z,102725.75
2023-02-06T18:22:42.361Z,102726.81
2023-02-06T18:25:11.508Z,102727.91
2023-02-06T18:27:38.410Z,102725.25
2023-02-06T18:30:06.239Z,102727.53
2023-02-06T18:32:33.913Z,102723.31
2023-02-06T18:35:00.697Z,102737.59
2023-02-06T18:37:27.494Z,102722.03
2023-02-06T18:39:55.491Z,102746.75
2023-02-06T18:42:40.950Z,102746.75
2023-02-06T18:45:08.565Z,102744.72
2023-02-06T18:47:35.419Z,102739.94
2023-02-06T18:50:01.972Z,102741.44
2023-02-06T18:52:29.113Z,102730.00
2023-02-06T18:54:55.862Z,102748.94
2023-02-06T18:57:22.614Z,102747.81
2023-02-06T18:59:49.273Z,102746.72
2023-02-06T19:02:16.159Z,102753.34
2023-02-06T19:04:42.809Z,102742.63
2023-02-06T19:07:11.712Z,102753.81
2023-02-06T19:09:38.736Z,102745.72
2023-02-06T19:12:05.768Z,102762.13
2023-02-06T19:14:32.452Z,102758.66
2023-02-06T19:16:59.179Z,102768.22
2023-02-06T19:19:25.885Z,102768.19
2023-02-06T19:21:52.479Z,102767.25
2023-02-06T19:24:19.420Z,102767.41
2023-02-06T19:26:46.632Z,102771.66
2023-02-06T19:29:16.655Z,102775.22
2023-02-06T19:31:43.714Z,102764.66
2023-02-06T19:34:10.606Z,102769.09
2023-02-06T19:36:38.412Z,102779.44
2023-02-06T19:39:09.348Z,102778.63
2023-02-06T19:41:36.861Z,102776.72
2023-02-06T19:44:06.783Z,102778.50
2023-02-06T19:46:34.604Z,102784.75
2023-02-06T19:49:02.685Z,102776.00
2023-02-06T19:51:31.615Z,102781.22
2023-02-06T19:53:59.450Z,102786.38
2023-02-06T19:56:27.597Z,102793.34
2023-02-06T19:58:59.122Z,102794.91
2023-02-06T20:01:27.313Z,102794.03
2023-02-06T20:03:55.289Z,102780.84
2023-02-06T20:06:22.289Z,102791.13
2023-02-06T20:08:49.351Z,102802.59
2023-02-06T20:11:18.959Z,102793.94
2023-02-06T20:13:47.281Z,102798.38
2023-02-06T20:16:22.867Z,102808.25
2023-02-06T20:18:50.314Z,102787.41
2023-02-06T20:21:27.920Z,102818.78
2023-02-06T20:23:57.470Z,102831.19
2023-02-06T20:26:26.595Z,102829.44
2023-02-06T20:28:53.478Z,102839.16
2023-02-06T20:31:21.225Z,102839.22
2023-02-06T20:33:49.039Z,102848.22
2023-02-06T20:36:18.833Z,102849.06
2023-02-06T20:38:50.679Z,102859.84
2023-02-06T20:41:18.010Z,102856.28
2023-02-06T20:43:48.195Z,102853.97
2023-02-06T20:46:19.541Z,102872.53
2023-02-06T20:48:47.563Z,102861.88
2023-02-06T20:51:14.755Z,102864.63
2023-02-06T20:53:41.406Z,102864.75
2023-02-06T20:56:12.329Z,102873.56
2023-02-06T20:58:39.279Z,102879.00
2023-02-06T21:01:17.880Z,102883.44
2023-02-06T21:03:45.975Z,102884.25
2023-02-06T21:06:13.209Z,102884.25
2023-02-06T21:08:40.522Z,102886.09
2023-02-06T21:11:07.913Z,102894.06
2023-02-06T21:13:35.126Z,102892.34
2023-02-06T21:16:02.659Z,102893.31
2023-02-06T21:18:31.224Z,102903.06
2023-02-06T21:21:06.627Z,102894.28
2023-02-06T21:23:33.707Z,102902.19
2023-02-06T21:26:00.529Z,102909.41
2023-02-06T21:28:27.133Z,102902.38
2023-02-06T21:31:07.652Z,102907.81
2023-02-06T21:33:35.697Z,102899.91
2023-02-06T21:36:03.849Z,102905.41
2023-02-06T21:38:30.467Z,102900.16
2023-02-06T21:41:07.125Z,102902.97
2023-02-06T21:43:34.222Z,102901.41
2023-02-06T21:46:01.719Z,102901.47
2023-02-06T21:48:28.470Z,102914.84
2023-02-06T21:50:58.128Z,102901.75
2023-02-06T21:53:24.763Z,102919.28
2023-02-06T21:55:51.402Z,102900.72
2023-02-06T21:58:18.101Z,102904.34
2023-02-06T22:00:46.461Z,102900.91
2023-02-06T22:03:14.190Z,102908.94
2023-02-06T22:05:40.898Z,102907.28
2023-02-06T22:08:07.649Z,102923.25
2023-02-06T22:10:37.909Z,102921.47
2023-02-06T22:13:05.963Z,102921.41
2023-02-06T22:15:33.840Z,102911.72
2023-02-06T22:18:00.590Z,102932.81
2023-02-06T22:20:27.546Z,102928.44
2023-02-06T22:22:55.854Z,102921.41
2023-02-06T22:25:22.578Z,102924.94
2023-02-06T22:27:49.161Z,102925.06
2023-02-06T22:30:15.919Z,102923.31
2023-02-06T22:32:42.734Z,102925.97
2023-02-06T22:35:09.389Z,102935.88
2023-02-06T22:37:36.320Z,102931.50
2023-02-06T22:40:03.240Z,102917.53
2023-02-06T22:42:30.041Z,102929.81
2023-02-06T22:44:56.715Z,102943.97
2023-02-06T22:47:23.310Z,102942.38
2023-02-06T22:49:53.577Z,102943.88
2023-02-06T22:52:38.764Z,102954.25
2023-02-06T22:55:05.871Z,102943.78
2023-02-06T22:57:35.218Z,102943.72
2023-02-06T23:00:01.962Z,102958.69
2023-02-06T23:02:28.535Z,102956.00
2023-02-06T23:04:55.249Z,102961.38
2023-02-06T23:07:21.827Z,102970.28
2023-02-06T23:09:48.466Z,102957.94
2023-02-06T23:12:16.222Z,102964.88
2023-02-06T23:14:43.026Z,102964.16
2023-02-06T23:17:10.833Z,102964.09
2023-02-06T23:19:39.211Z,102977.25
2023-02-06T23:22:06.216Z,102975.66
2023-02-06T23:24:32.802Z,102975.84
2023-02-06T23:26:59.426Z,102967.94
2023-02-06T23:29:26.116Z,102970.53
2023-02-06T23:31:52.914Z,102968.78
2023-02-06T23:34:23.683Z,102971.59
2023-02-06T23:36:51.882Z,102975.19
2023-02-06T23:39:18.499Z,102972.44
2023-02-06T23:41:45.029Z,102979.56
2023-02-06T23:44:11.931Z,102988.31
2023-02-06T23:46:39.700Z,102970.75
2023-02-06T23:49:06.781Z,102974.31
2023-02-06T23:51:33.575Z,102975.25
2023-02-06T23:54:00.371Z,102973.47
2023-02-06T23:56:29.110Z,102977.13
2023-02-06T23:58:56.964Z,102987.03
